Time;durP1;ratioP1;P1;durP2;ratioP2;P2;SDS_P1;SDS_P2;PMS_P1;PMS_P2;Temp;Humidity;BMP_temperature;BMP_pressure;BME280_temperature;BME280_humidity;BME280_pressure;Samples;Min_cycle;Max_cycle;Signal;HPM_P1;HPM_P2
2022/08/28 00:01:05;;;;;;;2.25;1.92;;;25.80;58.20;;;;;;4984552;28;20109;-60
2022/08/28 00:03:34;;;;;;;2.38;2.17;;;25.80;58.20;;;;;;4989087;28;20058;-61
2022/08/28 00:06:01;;;;;;;2.40;2.20;;;25.80;58.20;;;;;;4988442;28;20129;-61
2022/08/28 00:08:29;;;;;;;2.92;2.25;;;25.80;58.20;;;;;;4989127;28;20062;-61
2022/08/28 00:10:57;;;;;;;1.92;1.83;;;25.80;58.20;;;;;;4988992;28;20046;-60
2022/08/28 00:13:25;;;;;;;2.70;2.42;;;25.80;58.20;;;;;;4989034;28;20177;-60
2022/08/28 00:15:59;;;;;;;1.90;1.77;;;25.70;58.20;;;;;;4971039;28;20116;-60
2022/08/28 00:18:30;;;;;;;2.55;2.20;;;25.70;58.20;;;;;;4972481;28;20100;-61
2022/08/28 00:20:57;;;;;;;6.38;2.17;;;25.70;58.20;;;;;;4971780;28;20077;-60
2022/08/28 00:23:25;;;;;;;2.28;2.15;;;25.70;58.20;;;;;;4988690;28;20450;-61
2022/08/28 00:26:09;;;;;;;2.55;2.35;;;25.70;58.20;;;;;;4988614;28;20054;-60
2022/08/28 00:28:36;;;;;;;2.53;2.13;;;25.70;58.30;;;;;;4988876;28;20050;-60
2022/08/28 00:31:04;;;;;;;2.60;2.40;;;25.70;58.30;;;;;;4988501;28;20050;-60
2022/08/28 00:33:33;;;;;;;2.55;2.35;;;25.70;58.30;;;;;;4966888;28;20133;-61
2022/08/28 00:36:02;;;;;;;2.05;1.95;;;25.70;58.30;;;;;;4988592;28;20042;-60
2022/08/28 00:38:30;;;;;;;2.53;2.40;;;25.70;58.30;;;;;;4988617;28;20050;-61
2022/08/28 00:41:02;;;;;;;2.88;2.28;;;25.70;58.30;;;;;;4988058;28;20495;-60
2022/08/28 00:43:40;;;;;;;2.08;1.95;;;25.70;58.30;;;;;;4972148;28;20054;-60
2022/08/28 00:46:17;;;;;;;2.33;2.15;;;25.70;58.40;;;;;;4988058;28;20831;-60
2022/08/28 00:48:45;;;;;;;2.47;2.25;;;25.70;58.40;;;;;;4971687;28;20085;-61
2022/08/28 00:54:02;;;;;;;3.33;2.03;;;25.70;58.40;;;;;;4987497;28;20112;-60
2022/08/28 00:56:34;;;;;;;2.72;1.90;;;25.70;58.40;;;;;;4971730;28;20100;-61
2022/08/28 00:59:07;;;;;;;2.20;2.00;;;25.70;58.40;;;;;;4988211;28;20458;-60
2022/08/28 01:01:37;;;;;;;2.45;2.28;;;25.70;58.40;;;;;;4988165;28;20442;-60
2022/08/28 01:04:05;;;;;;;3.42;2.50;;;25.70;58.40;;;;;;4987669;28;20061;-61
2022/08/28 01:06:34;;;;;;;3.03;2.28;;;25.70;58.40;;;;;;4989645;28;20048;-61
2022/08/28 01:09:02;;;;;;;1.90;1.80;;;25.70;58.40;;;;;;4992749;28;20046;-61
2022/08/28 01:11:31;;;;;;;3.15;2.30;;;25.70;58.40;;;;;;4958668;28;20476;-61
2022/08/28 01:14:00;;;;;;;2.33;2.10;;;25.70;58.40;;;;;;4992331;28;20058;-60
2022/08/28 01:16:30;;;;;;;2.40;2.20;;;25.70;58.40;;;;;;4975491;28;20399;-60
2022/08/28 01:19:01;;;;;;;2.15;2.05;;;25.70;58.40;;;;;;4991946;28;20507;-60
2022/08/28 01:21:36;;;;;;;2.78;1.95;;;25.70;58.40;;;;;;4992346;28;20304;-61
2022/08/28 01:24:13;;;;;;;2.63;2.10;;;25.70;58.40;;;;;;4991965;28;20479;-60
2022/08/28 01:26:42;;;;;;;2.35;2.10;;;25.70;58.40;;;;;;4974175;28;20553;-60
2022/08/28 01:29:10;;;;;;;2.15;1.98;;;25.70;58.50;;;;;;4991466;28;20058;-60
2022/08/28 01:31:38;;;;;;;2.63;2.42;;;25.70;58.40;;;;;;4974611;28;20569;-60
2022/08/28 01:34:08;;;;;;;3.50;2.00;;;25.60;58.40;;;;;;4992425;28;20050;-60
2022/08/28 01:36:35;;;;;;;2.10;2.00;;;25.60;58.40;;;;;;4986613;28;20402;-60
2022/08/28 01:39:16;;;;;;;2.22;2.03;;;25.60;58.40;;;;;;4992134;28;20504;-60
2022/08/28 01:41:46;;;;;;;3.25;2.00;;;25.60;58.40;;;;;;4990709;28;20712;-60
2022/08/28 01:44:15;;;;;;;2.00;1.90;;;25.60;58.50;;;;;;4991761;28;20497;-60
2022/08/28 01:46:45;;;;;;;2.13;1.90;;;25.60;58.50;;;;;;4992545;28;20046;-60
2022/08/28 01:49:12;;;;;;;1.95;1.50;;;25.60;58.50;;;;;;4991010;28;20109;-60
2022/08/28 01:51:40;;;;;;;1.70;1.60;;;25.60;58.50;;;;;;4991492;28;20537;-60
2022/08/28 01:54:08;;;;;;;2.28;2.08;;;25.60;58.50;;;;;;4991282;28;20132;-60
2022/08/28 01:56:39;;;;;;;2.20;2.10;;;25.60;58.50;;;;;;4991256;28;20055;-60
2022/08/28 01:59:08;;;;;;;1.77;1.67;;;25.60;58.50;;;;;;4992062;28;20050;-60
2022/08/28 02:01:36;;;;;;;1.65;1.55;;;25.60;58.50;;;;;;4990474;28;20093;-61
2022/08/28 02:04:04;;;;;;;2.05;1.70;;;25.60;58.60;;;;;;4991788;28;20132;-61
2022/08/28 02:06:32;;;;;;;1.80;1.70;;;25.60;58.60;;;;;;4973186;28;20144;-62
2022/08/28 02:09:00;;;;;;;2.92;2.08;;;25.60;58.60;;;;;;4986762;28;20581;-60
2022/08/28 02:11:29;;;;;;;2.38;2.08;;;25.60;58.60;;;;;;4991110;28;20105;-60
2022/08/28 02:13:57;;;;;;;1.52;1.50;;;25.60;58.60;;;;;;4981858;28;20093;-60
2022/08/28 02:16:26;;;;;;;2.58;2.30;;;25.50;58.50;;;;;;4986387;28;20070;-60
2022/08/28 02:18:53;;;;;;;2.55;2.20;;;25.60;58.60;;;;;;4989395;28;20057;-61
2022/08/28 02:21:20;;;;;;;1.95;1.85;;;25.60;58.60;;;;;;4987894;28;20042;-60
2022/08/28 02:23:47;;;;;;;2.95;2.15;;;25.60;58.60;;;;;;4991038;28;20057;-60
2022/08/28 02:26:15;;;;;;;2.28;2.08;;;25.60;58.50;;;;;;4990330;28;20125;-60
2022/08/28 02:28:43;;;;;;;2.03;1.90;;;25.50;58.50;;;;;;4991034;28;20058;-60
2022/08/28 02:31:10;;;;;;;1.67;1.58;;;25.60;58.50;;;;;;4989402;28;20499;-60
2022/08/28 02:33:39;;;;;;;2.50;2.30;;;25.50;58.50;;;;;;4990774;28;20130;-61
2022/08/28 02:36:09;;;;;;;2.37;1.90;;;25.50;58.50;;;;;;4973986;28;20092;-60
2022/08/28 02:38:37;;;;;;;2.38;2.17;;;25.50;58.50;;;;;;4989265;28;20284;-61
2022/08/28 02:41:05;;;;;;;1.77;1.67;;;25.60;58.60;;;;;;4987540;28;20046;-60
2022/08/28 02:43:33;;;;;;;1.75;1.65;;;25.60;58.60;;;;;;4990160;28;20081;-60
2022/08/28 02:46:00;;;;;;;2.33;1.70;;;25.50;58.50;;;;;;4990721;28;20566;-61
2022/08/28 02:48:30;;;;;;;1.83;1.73;;;25.50;58.50;;;;;;4990599;28;20046;-60
2022/08/28 02:51:04;;;;;;;2.30;2.03;;;25.50;58.50;;;;;;4989993;28;20073;-60
2022/08/28 02:53:31;;;;;;;1.80;1.70;;;25.50;58.50;;;;;;4990742;28;20050;-61
2022/08/28 02:56:00;;;;;;;1.95;1.85;;;25.50;58.60;;;;;;4989479;28;20557;-61
2022/08/28 02:58:31;;;;;;;5.03;1.60;;;25.50;58.60;;;;;;4990977;28;20046;-60
2022/08/28 03:01:05;;;;;;;1.95;1.80;;;25.50;58.60;;;;;;4990410;28;20109;-61
2022/08/28 03:03:33;;;;;;;2.17;1.98;;;25.50;58.60;;;;;;4990314;28;20050;-61
2022/08/28 03:06:02;;;;;;;1.73;1.63;;;25.50;58.60;;;;;;4990362;28;20046;-60
2022/08/28 03:08:31;;;;;;;1.70;1.60;;;25.50;58.60;;;;;;4989305;28;20077;-61
2022/08/28 03:10:58;;;;;;;1.50;1.40;;;25.50;58.60;;;;;;4987582;28;20046;-60
2022/08/28 03:13:26;;;;;;;1.95;1.85;;;25.50;58.60;;;;;;4988936;28;20442;-60
2022/08/28 03:15:54;;;;;;;2.10;2.00;;;25.50;58.60;;;;;;4990219;28;20163;-60
2022/08/28 03:18:23;;;;;;;1.77;1.67;;;25.50;58.70;;;;;;4990053;28;20050;-60
2022/08/28 03:20:52;;;;;;;3.30;2.47;;;25.50;58.70;;;;;;4988886;28;20553;-60
2022/08/28 03:23:25;;;;;;;2.05;1.70;;;25.50;58.70;;;;;;4990184;28;20454;-60
2022/08/28 03:26:01;;;;;;;1.70;1.60;;;25.50;58.70;;;;;;4988918;28;20349;-60
2022/08/28 03:28:32;;;;;;;1.63;1.52;;;25.40;58.60;;;;;;4988910;28;20105;-60
2022/08/28 03:31:00;;;;;;;2.05;1.75;;;25.50;58.80;;;;;;4989892;28;20047;-60
2022/08/28 03:33:27;;;;;;;1.92;1.83;;;25.50;58.70;;;;;;4989386;28;20077;-60
2022/08/28 03:35:55;;;;;;;2.25;1.85;;;25.40;58.70;;;;;;4990194;28;20047;-60
2022/08/28 03:38:22;;;;;;;3.05;1.75;;;25.40;58.60;;;;;;4988854;28;20081;-61
2022/08/28 03:40:52;;;;;;;1.67;1.58;;;25.50;58.70;;;;;;4973068;28;20495;-61
2022/08/28 03:43:22;;;;;;;1.95;1.80;;;25.50;58.70;;;;;;4967501;28;20077;-60
2022/08/28 03:45:52;;;;;;;2.10;1.88;;;25.40;58.60;;;;;;4989007;28;20078;-61
2022/08/28 03:48:19;;;;;;;2.13;2.03;;;25.40;58.60;;;;;;4989680;28;20049;-60
2022/08/28 03:50:47;;;;;;;1.80;1.70;;;25.40;58.60;;;;;;4988871;28;20050;-60
2022/08/28 03:53:14;;;;;;;2.03;1.92;;;25.50;58.70;;;;;;4989422;28;20050;-60
2022/08/28 03:55:42;;;;;;;1.73;1.63;;;25.40;58.60;;;;;;4972212;28;20129;-60
2022/08/28 03:58:09;;;;;;;2.42;1.98;;;25.40;58.60;;;;;;4988806;28;20046;-60
2022/08/28 04:00:45;;;;;;;1.67;1.58;;;25.40;58.60;;;;;;4988950;28;20108;-60
2022/08/28 04:03:13;;;;;;;2.33;1.58;;;25.40;58.60;;;;;;4989693;28;20049;-60
2022/08/28 04:05:42;;;;;;;1.95;1.77;;;25.40;58.60;;;;;;4989183;28;20054;-60
2022/08/28 04:08:14;;;;;;;1.67;1.57;;;25.40;58.70;;;;;;4989375;28;20050;-60
2022/08/28 04:10:42;;;;;;;2.33;1.95;;;25.40;58.60;;;;;;4988267;28;20046;-60
2022/08/28 04:13:11;;;;;;;1.83;1.73;;;25.40;58.60;;;;;;4989450;28;20229;-61
2022/08/28 04:15:40;;;;;;;3.63;2.05;;;25.40;58.70;;;;;;4983430;28;20512;-60
2022/08/28 04:18:08;;;;;;;1.60;1.52;;;25.40;58.70;;;;;;4989311;28;20549;-60
2022/08/28 04:20:36;;;;;;;1.60;1.50;;;25.40;58.70;;;;;;4989363;28;20050;-60
2022/08/28 04:23:06;;;;;;;3.67;1.63;;;25.40;58.60;;;;;;4988276;28;20491;-61
2022/08/28 04:25:33;;;;;;;1.98;1.80;;;25.40;58.70;;;;;;4988841;28;20120;-60
2022/08/28 04:28:01;;;;;;;2.22;2.00;;;25.40;58.60;;;;;;4988246;28;20092;-60
2022/08/28 04:30:28;;;;;;;1.60;1.50;;;25.40;58.70;;;;;;4987606;28;20462;-60
2022/08/28 04:32:55;;;;;;;2.22;2.05;;;25.40;58.60;;;;;;4988752;28;20054;-62
2022/08/28 04:35:23;;;;;;;1.70;1.60;;;25.40;58.60;;;;;;4988911;28;20491;-61
2022/08/28 04:37:50;;;;;;;2.15;2.00;;;25.50;58.70;;;;;;4970203;28;20074;-60
2022/08/28 04:40:18;;;;;;;2.45;1.90;;;25.40;58.60;;;;;;4989050;28;20054;-61
2022/08/28 04:42:46;;;;;;;1.98;1.55;;;25.50;58.60;;;;;;4988177;28;20053;-60
2022/08/28 04:45:13;;;;;;;1.70;1.60;;;25.50;58.60;;;;;;4970301;28;20054;-61
2022/08/28 04:47:42;;;;;;;2.15;1.85;;;25.50;58.50;;;;;;4986226;28;20320;-60
2022/08/28 04:50:10;;;;;;;1.85;1.73;;;25.50;58.50;;;;;;4987606;28;20109;-61
2022/08/28 04:52:37;;;;;;;1.80;1.70;;;25.50;58.50;;;;;;4989196;28;20042;-60
2022/08/28 04:55:05;;;;;;;2.03;1.63;;;25.50;58.40;;;;;;4987820;28;20529;-61
2022/08/28 04:57:32;;;;;;;1.80;1.70;;;25.60;58.50;;;;;;4971506;28;20303;-60
2022/08/28 05:00:05;;;;;;;1.73;1.63;;;25.60;58.40;;;;;;4988764;28;20291;-61
2022/08/28 05:02:32;;;;;;;1.90;1.60;;;25.50;58.30;;;;;;4987326;28;20046;-60
2022/08/28 05:04:59;;;;;;;2.17;1.98;;;25.60;58.30;;;;;;4989022;28;20495;-60
2022/08/28 05:07:27;;;;;;;2.05;1.83;;;25.60;58.20;;;;;;4988000;28;20042;-60
2022/08/28 05:09:54;;;;;;;2.20;2.00;;;25.60;58.20;;;;;;4971013;28;20047;-61
2022/08/28 05:12:22;;;;;;;2.72;2.13;;;25.60;58.20;;;;;;4988362;28;20089;-60
2022/08/28 05:14:50;;;;;;;2.10;1.70;;;25.50;58.30;;;;;;4970037;28;20108;-60
2022/08/28 05:17:17;;;;;;;2.53;2.33;;;25.40;58.40;;;;;;4987244;28;20074;-60
2022/08/28 05:19:46;;;;;;;1.75;1.65;;;25.20;58.40;;;;;;4984959;28;20141;-60
2022/08/28 05:22:14;;;;;;;5.27;1.63;;;25.10;57.70;;;;;;4988760;28;20050;-60
2022/08/28 05:24:41;;;;;;;1.80;1.70;;;24.90;56.90;;;;;;4971816;28;20050;-60
2022/08/28 05:27:08;;;;;;;2.20;1.60;;;24.60;56.00;;;;;;4987256;28;20124;-60
2022/08/28 05:29:35;;;;;;;1.98;1.75;;;24.30;55.30;;;;;;4988733;28;20042;-60
2022/08/28 05:32:03;;;;;;;1.80;1.70;;;24.00;54.90;;;;;;4969895;28;20553;-60
2022/08/28 05:34:30;;;;;;;1.90;1.80;;;23.70;54.60;;;;;;4971426;28;20047;-60
2022/08/28 05:36:57;;;;;;;1.60;1.50;;;23.30;54.30;;;;;;4988276;28;20046;-60
2022/08/28 05:39:24;;;;;;;1.75;1.65;;;23.00;54.20;;;;;;4987971;28;20490;-60
2022/08/28 05:41:51;;;;;;;2.17;1.98;;;22.60;54.00;;;;;;4988603;28;20065;-60
2022/08/28 05:44:19;;;;;;;1.98;1.88;;;22.40;54.00;;;;;;4987393;28;20534;-60
2022/08/28 05:46:47;;;;;;;1.80;1.70;;;22.10;54.30;;;;;;4988002;28;20101;-60
2022/08/28 05:49:18;;;;;;;1.90;1.80;;;21.80;54.60;;;;;;4983971;28;20078;-60
2022/08/28 05:51:45;;;;;;;2.70;2.22;;;21.60;55.20;;;;;;4989794;28;20435;-60
2022/08/28 05:54:14;;;;;;;4.55;2.40;;;21.40;55.70;;;;;;4992068;28;20254;-60
2022/08/28 05:56:43;;;;;;;2.47;2.10;;;21.20;56.00;;;;;;4989962;28;20046;-62
2022/08/28 05:59:11;;;;;;;2.42;2.22;;;21.00;56.20;;;;;;4992039;28;20446;-63
2022/08/28 06:01:43;;;;;;;2.42;2.08;;;20.80;57.20;;;;;;4974216;28;20495;-60
2022/08/28 06:04:18;;;;;;;2.22;2.03;;;20.70;57.70;;;;;;4991311;28;20108;-61
2022/08/28 06:06:45;;;;;;;3.13;2.30;;;20.60;57.50;;;;;;4958641;28;20731;-61
2022/08/28 06:09:22;;;;;;;5.05;2.40;;;20.50;57.80;;;;;;4973103;28;20407;-60
2022/08/28 06:11:57;;;;;;;2.47;2.28;;;20.40;57.80;;;;;;4991381;28;20558;-60
2022/08/28 06:14:25;;;;;;;2.97;2.20;;;20.30;57.80;;;;;;4973714;28;20047;-60
2022/08/28 06:16:54;;;;;;;2.45;2.17;;;20.10;57.50;;;;;;4990261;28;20142;-60
2022/08/28 06:19:24;;;;;;;2.28;2.05;;;20.10;58.10;;;;;;4991424;28;20545;-60
2022/08/28 06:21:57;;;;;;;2.92;2.38;;;19.90;58.50;;;;;;4968263;28;20573;-60
2022/08/28 06:24:25;;;;;;;2.63;2.42;;;19.90;58.50;;;;;;4991615;28;20046;-60
2022/08/28 06:26:52;;;;;;;2.40;2.20;;;19.90;58.80;;;;;;4990961;28;20077;-60
2022/08/28 06:29:26;;;;;;;3.88;2.25;;;19.80;58.80;;;;;;4990708;28;20499;-61
2022/08/28 06:31:56;;;;;;;3.67;2.10;;;19.70;58.60;;;;;;4990912;28;20471;-60
2022/08/28 06:34:24;;;;;;;2.78;2.47;;;19.70;59.10;;;;;;4990474;28;20053;-60
2022/08/28 06:36:52;;;;;;;2.92;2.15;;;19.60;58.90;;;;;;4973621;28;20493;-60
2022/08/28 06:39:21;;;;;;;2.55;2.10;;;19.60;58.80;;;;;;4991194;28;20046;-60
2022/08/28 06:41:48;;;;;;;3.17;2.42;;;19.60;58.90;;;;;;4972693;28;20058;-60
2022/08/28 06:44:19;;;;;;;2.75;2.35;;;19.50;58.50;;;;;;4990904;28;20054;-61
2022/08/28 06:46:48;;;;;;;;;;;19.40;58.90;;;;;;4990413;28;20538;-60
2022/08/28 06:49:15;;;;;;;4.03;2.83;;;19.30;58.70;;;;;;4990718;28;20390;-60
2022/08/28 06:51:42;;;;;;;2.72;2.38;;;19.20;59.80;;;;;;4972038;28;20116;-60
2022/08/28 06:54:10;;;;;;;2.83;2.63;;;19.20;60.00;;;;;;4986807;28;20104;-60
2022/08/28 06:56:38;;;;;;;3.45;2.47;;;19.10;59.80;;;;;;4990787;28;20046;-60
2022/08/28 06:59:05;;;;;;;2.80;2.50;;;19.00;60.00;;;;;;4990385;28;20066;-60
2022/08/28 07:01:35;;;;;;;2.83;2.60;;;19.00;59.80;;;;;;4989444;28;20047;-60
2022/08/28 07:04:08;;;;;;;2.58;2.38;;;19.00;60.10;;;;;;4989916;28;20056;-60
2022/08/28 07:06:38;;;;;;;2.90;2.60;;;19.00;59.60;;;;;;4989699;28;20507;-60
2022/08/28 07:09:08;;;;;;;2.80;2.57;;;18.90;60.10;;;;;;4990100;28;20538;-60
2022/08/28 07:11:35;;;;;;;3.17;2.38;;;18.90;61.10;;;;;;4972203;28;20292;-60
2022/08/28 07:14:03;;;;;;;6.90;3.17;;;18.90;60.80;;;;;;4990007;28;20050;-60
2022/08/28 07:16:33;;;;;;;3.45;2.97;;;18.90;61.50;;;;;;4990495;28;20117;-60
2022/08/28 07:19:04;;;;;;;4.65;2.97;;;18.90;61.70;;;;;;4972255;28;20046;-60
2022/08/28 07:21:34;;;;;;;4.28;2.88;;;18.90;62.30;;;;;;4989585;28;20050;-60
2022/08/28 07:24:05;;;;;;;3.42;2.60;;;19.00;62.10;;;;;;4984939;28;20049;-60
2022/08/28 07:26:33;;;;;;;5.65;2.63;;;19.00;62.70;;;;;;4972470;28;20125;-60
2022/08/28 07:29:03;;;;;;;4.32;2.55;;;19.00;61.90;;;;;;4990382;28;20450;-60
2022/08/28 07:31:39;;;;;;;2.08;1.90;;;19.00;62.80;;;;;;4989927;28;20072;-60
2022/08/28 07:34:11;;;;;;;2.63;2.42;;;19.10;61.90;;;;;;4989567;28;20058;-60
2022/08/28 07:36:39;;;;;;;5.75;2.67;;;19.10;61.90;;;;;;4972303;28;20054;-60
2022/08/28 07:39:07;;;;;;;2.65;2.38;;;19.10;62.20;;;;;;4989389;28;20203;-60
2022/08/28 07:41:37;;;;;;;2.92;2.30;;;19.10;62.30;;;;;;4990829;28;20046;-60
2022/08/28 07:46:54;;;;;;;2.40;2.20;;;19.20;62.10;;;;;;4989669;28;20381;-60
2022/08/28 07:49:22;;;;;;;4.00;2.65;;;19.20;62.70;;;;;;4971444;28;20082;-62
2022/08/28 07:51:50;;;;;;;4.05;2.47;;;19.20;62.40;;;;;;4989122;28;20101;-62
2022/08/28 07:54:21;;;;;;;5.57;2.70;;;19.20;62.60;;;;;;4988724;28;20046;-62
2022/08/28 07:56:48;;;;;;;3.30;3.00;;;19.30;62.40;;;;;;4984987;28;20446;-62
2022/08/28 07:59:16;;;;;;;2.70;2.50;;;19.30;62.70;;;;;;4990026;28;20093;-62
2022/08/28 08:01:47;;;;;;;2.43;2.23;;;19.40;62.90;;;;;;4988809;28;20191;-63
2022/08/28 08:04:15;;;;;;;3.38;2.00;;;19.40;62.70;;;;;;4989465;28;20272;-62
2022/08/28 08:06:43;;;;;;;3.88;2.72;;;19.40;62.50;;;;;;4988781;28;20074;-62
2022/08/28 08:09:12;;;;;;;4.82;2.83;;;19.40;62.60;;;;;;4971869;28;20133;-62
2022/08/28 08:11:40;;;;;;;2.63;2.40;;;19.40;62.70;;;;;;4989639;28;20129;-62
2022/08/28 08:14:08;;;;;;;3.97;2.40;;;19.40;62.30;;;;;;4987625;28;20050;-62
2022/08/28 08:16:39;;;;;;;2.97;2.72;;;19.40;62.40;;;;;;4988555;28;20601;-62
2022/08/28 08:19:08;;;;;;;4.60;2.92;;;19.50;62.50;;;;;;4971547;28;20130;-62
2022/08/28 08:21:36;;;;;;;3.15;2.50;;;19.50;62.30;;;;;;4988597;28;20061;-63
2022/08/28 08:24:04;;;;;;;2.58;2.38;;;19.60;62.30;;;;;;4989009;28;20046;-60
2022/08/28 08:26:33;;;;;;;4.20;3.00;;;19.60;62.50;;;;;;4986646;28;20082;-61
2022/08/28 08:29:00;;;;;;;5.00;2.88;;;19.60;62.60;;;;;;4986604;28;20108;-63
2022/08/28 08:31:33;;;;;;;3.72;2.70;;;19.60;62.40;;;;;;4988385;28;20061;-60
2022/08/28 08:34:03;;;;;;;2.65;2.35;;;19.60;62.20;;;;;;4988367;28;20050;-60
2022/08/28 08:36:32;;;;;;;4.28;2.70;;;19.60;62.50;;;;;;4989174;28;20565;-60
2022/08/28 08:39:00;;;;;;;4.65;2.80;;;19.70;62.60;;;;;;4987529;28;20447;-60
2022/08/28 08:41:46;;;;;;;4.35;2.75;;;19.70;62.60;;;;;;4989175;28;20049;-60
2022/08/28 08:44:32;;;;;;;3.28;2.60;;;19.80;62.70;;;;;;4988062;28;20065;-60
2022/08/28 08:47:39;;;;;;;2.60;2.25;;;19.80;62.70;;;;;;4988704;28;20054;-60
2022/08/28 08:50:15;;;;;;;5.57;3.00;;;19.80;62.30;;;;;;4988133;28;20181;-60
2022/08/28 08:53:23;;;;;;;2.22;2.03;;;19.90;62.70;;;;;;4988700;28;20054;-60
2022/08/28 08:55:53;;;;;;;3.08;2.55;;;19.90;62.20;;;;;;4973583;28;20089;-62
2022/08/28 08:58:39;;;;;;;4.07;2.75;;;19.90;62.70;;;;;;4968839;28;20038;-63
2022/08/28 09:01:31;;;;;;;2.85;2.55;;;20.00;62.20;;;;;;4989801;28;20061;-62
2022/08/28 09:04:33;;;;;;;2.80;2.53;;;20.00;62.20;;;;;;4987026;28;20142;-63
2022/08/28 09:07:09;;;;;;;2.90;2.55;;;20.00;62.30;;;;;;4988772;28;20074;-62
2022/08/28 09:09:45;;;;;;;3.67;2.92;;;20.10;62.50;;;;;;4987509;28;20065;-62
2022/08/28 09:12:19;;;;;;;3.33;2.92;;;20.10;62.30;;;;;;4988844;28;20043;-63
2022/08/28 09:15:16;;;;;;;3.15;2.65;;;20.10;62.40;;;;;;4987609;28;20046;-63
2022/08/28 09:17:49;;;;;;;3.25;2.95;;;20.10;62.40;;;;;;4988655;28;20086;-63
2022/08/28 09:20:21;;;;;;;3.05;2.75;;;20.10;62.40;;;;;;4987931;28;20050;-63
2022/08/28 09:22:59;;;;;;;2.70;2.47;;;20.10;62.00;;;;;;4988557;28;20046;-63
2022/08/28 09:25:49;;;;;;;7.80;2.65;;;20.10;62.10;;;;;;4990058;28;20490;-62
2022/08/28 09:28:24;;;;;;;2.88;2.65;;;20.10;62.30;;;;;;4973614;28;20066;-63
2022/08/28 09:31:06;;;;;;;2.78;2.58;;;20.10;62.40;;;;;;4987950;28;20451;-63
2022/08/28 09:33:44;;;;;;;5.50;3.15;;;20.10;62.40;;;;;;4991607;28;20438;-63
2022/08/28 09:36:31;;;;;;;5.28;3.40;;;20.20;62.60;;;;;;4974592;28;20415;-63
2022/08/28 09:39:12;;;;;;;6.10;3.00;;;20.20;62.80;;;;;;4991990;28;20450;-63
2022/08/28 09:45:17;;;;;;;4.35;2.90;;;20.20;62.70;;;;;;4992099;28;20118;-63
2022/08/28 09:47:53;;;;;;;3.22;2.60;;;20.30;63.00;;;;;;4959457;28;20057;-63
2022/08/28 09:50:28;;;;;;;4.38;3.53;;;20.30;63.20;;;;;;4991881;28;20046;-62
2022/08/28 09:52:59;;;;;;;3.25;2.95;;;20.40;63.10;;;;;;4991249;28;20190;-63
2022/08/28 09:55:42;;;;;;;4.40;3.30;;;20.40;63.40;;;;;;4991471;28;20499;-62
2022/08/28 09:58:09;;;;;;;2.88;2.67;;;20.40;63.10;;;;;;4990831;28;20051;-63
2022/08/28 10:00:47;;;;;;;3.55;3.00;;;20.50;63.20;;;;;;4975363;28;20403;-63
2022/08/28 10:03:24;;;;;;;3.67;2.80;;;20.50;63.30;;;;;;4986794;28;20100;-63
2022/08/28 10:06:17;;;;;;;3.35;3.05;;;20.50;63.10;;;;;;4974956;28;20073;-63
2022/08/28 10:08:53;;;;;;;7.35;4.07;;;20.50;63.00;;;;;;4978299;28;20117;-63
2022/08/28 10:11:40;;;;;;;5.78;3.33;;;20.60;63.00;;;;;;4990485;28;20058;-63
2022/08/28 10:14:30;;;;;;;2.95;2.75;;;20.60;62.40;;;;;;4976192;28;20038;-63
2022/08/28 10:17:37;;;;;;;3.67;3.17;;;20.60;62.40;;;;;;4989791;28;20561;-62
2022/08/28 10:20:15;;;;;;;3.70;2.92;;;20.60;61.90;;;;;;4977475;28;20366;-63
2022/08/28 10:23:15;;;;;;;5.15;2.90;;;20.60;62.20;;;;;;4973432;28;20466;-62
2022/08/28 10:26:14;;;;;;;4.72;2.75;;;20.60;62.40;;;;;;4962433;28;20164;-63
2022/08/28 10:29:13;;;;;;;3.30;2.50;;;20.60;62.20;;;;;;4990728;28;20434;-60
2022/08/28 10:32:16;;;;;;;3.78;2.80;;;20.60;62.40;;;;;;4991005;28;20172;-62
2022/08/28 10:35:14;;;;;;;4.25;2.90;;;20.60;62.30;;;;;;4985099;28;20034;-60
2022/08/28 10:38:09;;;;;;;4.30;3.47;;;20.60;62.30;;;;;;4990351;28;20454;-61
2022/08/28 10:40:58;;;;;;;4.13;2.50;;;20.60;62.70;;;;;;4976888;28;20073;-61
2022/08/28 10:43:38;;;;;;;3.95;3.08;;;20.70;62.40;;;;;;4990111;28;20046;-61
2022/08/28 10:46:25;;;;;;;5.15;3.13;;;20.70;62.60;;;;;;4990766;28;20047;-61
2022/08/28 10:49:05;;;;;;;5.00;3.30;;;20.70;62.30;;;;;;4990689;28;20403;-61
2022/08/28 10:51:40;;;;;;;3.23;2.93;;;20.70;61.90;;;;;;4990794;28;20046;-61
2022/08/28 10:54:49;;;;;;;5.85;3.20;;;20.80;62.10;;;;;;4991258;28;20165;-61
2022/08/28 10:57:41;;;;;;;2.92;2.72;;;20.70;61.80;;;;;;4989112;28;20054;-61
2022/08/28 11:00:14;;;;;;;4.95;2.63;;;20.70;62.00;;;;;;4990503;28;20482;-61
2022/08/28 11:02:45;;;;;;;5.63;3.53;;;20.70;61.80;;;;;;4989829;28;20085;-61
2022/08/28 11:05:13;;;;;;;4.95;2.80;;;20.70;61.60;;;;;;4990489;28;20383;-62
2022/08/28 11:07:46;;;;;;;7.15;4.45;;;20.70;61.30;;;;;;4985904;28;20085;-61
2022/08/28 11:10:39;;;;;;;3.53;3.03;;;20.80;61.30;;;;;;4990037;28;20050;-61
2022/08/28 11:13:08;;;;;;;3.95;3.22;;;20.80;61.20;;;;;;4990382;28;20096;-62
2022/08/28 11:15:41;;;;;;;4.77;3.30;;;20.80;62.00;;;;;;4972438;28;20055;-61
2022/08/28 11:18:44;;;;;;;4.30;2.92;;;20.80;61.20;;;;;;4990472;28;20046;-62
2022/08/28 11:21:20;;;;;;;7.93;3.50;;;20.80;61.10;;;;;;4972325;28;20101;-61
2022/08/28 11:24:27;;;;;;;3.15;2.70;;;20.80;60.90;;;;;;4990585;28;20050;-61
2022/08/28 11:27:15;;;;;;;3.42;3.13;;;20.80;60.60;;;;;;4989130;28;20054;-61
2022/08/28 11:30:22;;;;;;;4.03;3.33;;;20.90;61.00;;;;;;4972503;28;20073;-61
2022/08/28 11:33:00;;;;;;;2.88;2.67;;;20.90;60.60;;;;;;4974782;28;20491;-61
2022/08/28 11:35:47;;;;;;;4.22;3.13;;;20.90;60.80;;;;;;4989743;28;20561;-61
2022/08/28 11:38:54;;;;;;;3.45;2.75;;;20.90;60.90;;;;;;4985020;28;20054;-61
2022/08/28 11:41:35;;;;;;;6.07;2.97;;;20.90;61.20;;;;;;4975598;28;20434;-61
2022/08/28 11:44:23;;;;;;;4.72;2.90;;;20.90;61.00;;;;;;4990154;28;20054;-61
2022/08/28 11:46:54;;;;;;;3.00;2.70;;;20.90;61.40;;;;;;4988043;28;20129;-61
2022/08/28 11:49:39;;;;;;;2.85;2.35;;;20.90;61.50;;;;;;4989399;28;20419;-61
2022/08/28 11:52:44;;;;;;;4.90;3.10;;;20.90;61.30;;;;;;4971411;28;20557;-62
2022/08/28 11:55:29;;;;;;;2.90;2.50;;;20.90;61.70;;;;;;4972225;28;20046;-61
2022/08/28 11:58:36;;;;;;;3.90;3.05;;;20.90;61.80;;;;;;4971588;28;20084;-61
2022/08/28 12:01:25;;;;;;;2.75;2.55;;;21.00;61.50;;;;;;4982794;28;20223;-61
2022/08/28 12:04:02;;;;;;;5.30;2.88;;;21.00;61.60;;;;;;4986355;28;20046;-61
2022/08/28 12:07:15;;;;;;;4.68;3.13;;;21.00;61.60;;;;;;4940012;28;20169;-61
2022/08/28 12:09:46;;;;;;;3.75;3.10;;;21.00;61.80;;;;;;4966869;28;20059;-61
2022/08/28 12:12:49;;;;;;;2.95;2.65;;;21.10;61.40;;;;;;4989208;28;20123;-61
2022/08/28 12:15:37;;;;;;;3.75;3.00;;;21.10;61.40;;;;;;4977079;28;20074;-61
2022/08/28 12:18:22;;;;;;;4.28;3.17;;;21.10;61.20;;;;;;4988056;28;20058;-61
2022/08/28 12:21:03;;;;;;;3.40;2.95;;;21.10;60.90;;;;;;4971799;28;20487;-61
2022/08/28 12:23:54;;;;;;;5.80;2.83;;;21.10;60.80;;;;;;4988209;28;20056;-62
2022/08/28 12:26:28;;;;;;;3.30;2.75;;;21.00;60.40;;;;;;4974262;28;20050;-61
2022/08/28 12:29:01;;;;;;;4.60;3.13;;;21.00;60.40;;;;;;4970944;28;20125;-61
2022/08/28 12:32:11;;;;;;;3.17;2.60;;;21.00;61.00;;;;;;4989408;28;20458;-61
2022/08/28 12:35:08;;;;;;;2.80;2.60;;;21.00;60.90;;;;;;4959370;28;20053;-61
2022/08/28 12:37:41;;;;;;;3.80;3.08;;;21.00;60.50;;;;;;4989181;28;20101;-61
2022/08/28 12:40:53;;;;;;;4.72;2.80;;;21.00;60.80;;;;;;4986961;28;20477;-61
2022/08/28 12:43:38;;;;;;;4.90;2.63;;;21.00;60.20;;;;;;4974676;28;20108;-61
2022/08/28 12:46:28;;;;;;;4.22;2.60;;;21.00;60.40;;;;;;4988871;28;20054;-61
2022/08/28 12:49:00;;;;;;;4.63;2.85;;;21.00;60.40;;;;;;4988209;28;20046;-61
2022/08/28 12:51:30;;;;;;;4.13;3.00;;;21.00;60.50;;;;;;4956500;28;20058;-61
2022/08/28 12:54:03;;;;;;;4.00;2.90;;;21.00;60.30;;;;;;4988476;28;20061;-61
2022/08/28 12:56:36;;;;;;;3.22;2.95;;;21.00;61.20;;;;;;4988341;28;20093;-61
2022/08/28 12:59:24;;;;;;;2.97;2.67;;;21.00;60.40;;;;;;4988088;28;20039;-61
2022/08/28 13:01:53;;;;;;;4.60;2.58;;;21.00;60.40;;;;;;4992850;28;20189;-61
2022/08/28 13:04:32;;;;;;;4.68;2.83;;;20.90;60.60;;;;;;4992793;28;20054;-62
2022/08/28 13:07:06;;;;;;;5.20;2.83;;;21.00;60.90;;;;;;4992059;28;20580;-61
2022/08/28 13:09:34;;;;;;;3.53;3.00;;;20.90;61.10;;;;;;4975132;28;20571;-61
2022/08/28 13:12:01;;;;;;;2.90;2.70;;;20.90;61.20;;;;;;4990255;28;20093;-61
2022/08/28 13:14:37;;;;;;;3.78;2.83;;;20.90;61.00;;;;;;4972487;28;20105;-61
2022/08/28 13:17:06;;;;;;;3.60;2.53;;;20.90;61.10;;;;;;4991850;28;20054;-60
2022/08/28 13:19:34;;;;;;;4.35;3.33;;;20.80;61.30;;;;;;4992673;28;20053;-60
2022/08/28 13:22:08;;;;;;;3.42;3.00;;;20.90;61.30;;;;;;4992460;28;20058;-60
2022/08/28 13:24:46;;;;;;;3.53;2.83;;;20.80;61.70;;;;;;4991631;28;20487;-60
2022/08/28 13:27:22;;;;;;;2.75;2.50;;;20.80;61.60;;;;;;4992419;28;20051;-60
2022/08/28 13:30:01;;;;;;;3.15;2.85;;;20.80;61.70;;;;;;4974034;28;20132;-61
2022/08/28 13:32:37;;;;;;;3.60;3.22;;;20.80;61.40;;;;;;4991667;28;20047;-61